SDM766 UMMS-UWUU
Flight info
| Callsign | SDM766 |
|---|---|
| Flight time | 2h 20m |
| Altitude | 35000 |
| Route | AGNEF2F AGNEF N869 LAPKI L999 AGLAN M864 INKEB L94 UNORO T788 NAMUD L994 DILUP DILUP3Z |
| Aircraft | B77W/H-SDE1E2E3FGHIJ2J3J4J5M1RWXY/LB1D1 |
Departure
| Time | 2026-04-20 19:18 |
|---|---|
| Airport | Minsk National Airport (UMMS) |
Arrival
| Time | 2026-04-20 21:38 |
|---|---|
| Airport | Ufa International Airport (UWUU) |
| Time | Latitude | Longitude | Altitude | Speed | Heading |
|---|---|---|---|---|---|
| 2026-04-20 18:48 | 53.88957 | 28.03002 | 683 ft | 0 kts | 48° |
| 2026-04-20 19:03 | 53.88952 | 28.02992 | 683 ft | 2 kts | 45° |
| 2026-04-20 19:03 | 53.88941 | 28.02973 | 683 ft | 2 kts | 47° |
| 2026-04-20 19:03 | 53.88932 | 28.02953 | 683 ft | 2 kts | 70° |
| 2026-04-20 19:03 | 53.88929 | 28.02928 | 683 ft | 2 kts | 88° |
| 2026-04-20 19:04 | 53.88931 | 28.02903 | 683 ft | 2 kts | 105° |
| 2026-04-20 19:04 | 53.88936 | 28.02880 | 683 ft | 2 kts | 122° |
| 2026-04-20 19:04 | 53.88944 | 28.02862 | 683 ft | 0 kts | 137° |
| 2026-04-20 19:04 | 53.88947 | 28.02857 | 683 ft | 0 kts | 140° |
| 2026-04-20 19:06 | 53.88934 | 28.02877 | 683 ft | 4 kts | 137° |
| 2026-04-20 19:07 | 53.88897 | 28.02934 | 683 ft | 9 kts | 137° |
| 2026-04-20 19:07 | 53.88839 | 28.03023 | 683 ft | 13 kts | 138° |
| 2026-04-20 19:07 | 53.88762 | 28.03137 | 683 ft | 16 kts | 139° |
| 2026-04-20 19:07 | 53.88674 | 28.03269 | 683 ft | 15 kts | 139° |
| 2026-04-20 19:08 | 53.88621 | 28.03346 | 683 ft | 14 kts | 139° |
| 2026-04-20 19:08 | 53.88551 | 28.03593 | 683 ft | 9 kts | 48° |
| 2026-04-20 19:08 | 53.88588 | 28.03680 | 683 ft | 9 kts | 53° |
| 2026-04-20 19:09 | 53.88630 | 28.03770 | 683 ft | 10 kts | 51° |
| 2026-04-20 19:09 | 53.88677 | 28.03863 | 683 ft | 10 kts | 49° |
| 2026-04-20 19:09 | 53.88729 | 28.03964 | 683 ft | 11 kts | 48° |
| 2026-04-20 19:09 | 53.88786 | 28.04073 | 683 ft | 13 kts | 49° |
| 2026-04-20 19:10 | 53.88856 | 28.04207 | 683 ft | 16 kts | 48° |
| 2026-04-20 19:10 | 53.88937 | 28.04361 | 683 ft | 18 kts | 48° |
| 2026-04-20 19:10 | 53.89028 | 28.04532 | 683 ft | 20 kts | 48° |
| 2026-04-20 19:10 | 53.89116 | 28.04703 | 683 ft | 17 kts | 49° |
| 2026-04-20 19:11 | 53.89177 | 28.04826 | 683 ft | 11 kts | 60° |
| 2026-04-20 19:11 | 53.89163 | 28.04942 | 683 ft | 11 kts | 132° |
| 2026-04-20 19:11 | 53.89106 | 28.05036 | 683 ft | 12 kts | 137° |
| 2026-04-20 19:11 | 53.89041 | 28.05135 | 683 ft | 12 kts | 138° |
| 2026-04-20 19:12 | 53.88990 | 28.05211 | 683 ft | 9 kts | 139° |
| 2026-04-20 19:12 | 53.88938 | 28.05286 | 683 ft | 10 kts | 140° |
| 2026-04-20 19:12 | 53.88878 | 28.05372 | 683 ft | 12 kts | 140° |
| 2026-04-20 19:12 | 53.88803 | 28.05480 | 683 ft | 15 kts | 139° |
| 2026-04-20 19:13 | 53.88715 | 28.05611 | 683 ft | 18 kts | 138° |
| 2026-04-20 19:13 | 53.88614 | 28.05764 | 683 ft | 20 kts | 137° |
| 2026-04-20 19:13 | 53.88504 | 28.05929 | 683 ft | 20 kts | 139° |
| 2026-04-20 19:13 | 53.88403 | 28.06077 | 683 ft | 18 kts | 139° |
| 2026-04-20 19:14 | 53.88311 | 28.06213 | 683 ft | 16 kts | 139° |
| 2026-04-20 19:14 | 53.88229 | 28.06334 | 683 ft | 14 kts | 139° |
| 2026-04-20 19:14 | 53.88155 | 28.06444 | 683 ft | 13 kts | 138° |
| 2026-04-20 19:14 | 53.88088 | 28.06544 | 683 ft | 12 kts | 138° |
| 2026-04-20 19:15 | 53.88028 | 28.06635 | 683 ft | 11 kts | 138° |
| 2026-04-20 19:15 | 53.87973 | 28.06718 | 683 ft | 10 kts | 138° |
| 2026-04-20 19:15 | 53.87942 | 28.06807 | 683 ft | 8 kts | 88° |
| 2026-04-20 19:15 | 53.87968 | 28.06888 | 683 ft | 7 kts | 52° |
| 2026-04-20 19:16 | 53.88000 | 28.06954 | 683 ft | 6 kts | 50° |
| 2026-04-20 19:16 | 53.88036 | 28.06983 | 683 ft | 5 kts | 356° |
| 2026-04-20 19:16 | 53.88073 | 28.06958 | 683 ft | 6 kts | 328° |
| 2026-04-20 19:16 | 53.88123 | 28.06892 | 683 ft | 17 kts | 320° |
| 2026-04-20 19:17 | 53.88395 | 28.06498 | 683 ft | 86 kts | 319° |
| 2026-04-20 19:17 | 53.89011 | 28.05578 | 684 ft | 149 kts | 319° |
| 2026-04-20 19:17 | 53.89917 | 28.04232 | 822 ft | 189 kts | 320° |
| 2026-04-20 19:17 | 53.90575 | 28.03219 | 1169 ft | 196 kts | 320° |
| 2026-04-20 19:18 | 53.91877 | 28.01073 | 2376 ft | 197 kts | 324° |
| 2026-04-20 19:18 | 53.92962 | 27.99664 | 2853 ft | 207 kts | 328° |
| 2026-04-20 19:18 | 53.94179 | 27.98142 | 3061 ft | 232 kts | 330° |
| 2026-04-20 19:18 | 53.95491 | 27.96468 | 3651 ft | 240 kts | 322° |
| 2026-04-20 19:19 | 53.96832 | 27.94955 | 4432 ft | 234 kts | 344° |
| 2026-04-20 19:19 | 53.98436 | 27.94593 | 5045 ft | 233 kts | 10° |
| 2026-04-20 19:19 | 53.99946 | 27.95435 | 5745 ft | 233 kts | 25° |
| 2026-04-20 19:19 | 54.01436 | 27.96662 | 6164 ft | 244 kts | 26° |
| 2026-04-20 19:20 | 54.02956 | 27.97943 | 6773 ft | 250 kts | 26° |
| 2026-04-20 19:20 | 54.04494 | 27.99312 | 7435 ft | 254 kts | 34° |
| 2026-04-20 19:20 | 54.05725 | 28.01468 | 8074 ft | 261 kts | 57° |
| 2026-04-20 19:20 | 54.06322 | 28.04419 | 8724 ft | 270 kts | 81° |
| 2026-04-20 19:21 | 54.06388 | 28.07581 | 9417 ft | 273 kts | 86° |
| 2026-04-20 19:21 | 54.06366 | 28.10836 | 10103 ft | 277 kts | 87° |
| 2026-04-20 19:21 | 54.06344 | 28.14157 | 10530 ft | 289 kts | 86° |
| 2026-04-20 19:21 | 54.06328 | 28.17632 | 10808 ft | 306 kts | 87° |
| 2026-04-20 19:22 | 54.06314 | 28.21373 | 11154 ft | 321 kts | 85° |
| 2026-04-20 19:22 | 54.06484 | 28.25229 | 11479 ft | 336 kts | 81° |
| 2026-04-20 19:22 | 54.06726 | 28.29233 | 11839 ft | 351 kts | 81° |
| 2026-04-20 19:22 | 54.06981 | 28.33451 | 12312 ft | 363 kts | 80° |
| 2026-04-20 19:23 | 54.07449 | 28.37601 | 12958 ft | 365 kts | 71° |
| 2026-04-20 19:23 | 54.08367 | 28.41632 | 13743 ft | 365 kts | 60° |
| 2026-04-20 19:23 | 54.09622 | 28.45352 | 14561 ft | 366 kts | 56° |
| 2026-04-20 19:23 | 54.11090 | 28.48858 | 15351 ft | 368 kts | 47° |
| 2026-04-20 19:24 | 54.12914 | 28.51962 | 16139 ft | 371 kts | 39° |
| 2026-04-20 19:24 | 54.15026 | 28.54509 | 16910 ft | 374 kts | 30° |
| 2026-04-20 19:24 | 54.17334 | 28.56455 | 17660 ft | 378 kts | 24° |
| 2026-04-20 19:24 | 54.19764 | 28.58283 | 18415 ft | 382 kts | 24° |
| 2026-04-20 19:25 | 54.22187 | 28.60115 | 19141 ft | 386 kts | 24° |
| 2026-04-20 19:25 | 54.24647 | 28.61992 | 19881 ft | 389 kts | 24° |
| 2026-04-20 19:25 | 54.27114 | 28.63887 | 20577 ft | 394 kts | 25° |
| 2026-04-20 19:25 | 54.29614 | 28.65817 | 21232 ft | 398 kts | 25° |
| 2026-04-20 19:26 | 54.32140 | 28.67773 | 21921 ft | 402 kts | 26° |
| 2026-04-20 19:26 | 54.34682 | 28.69747 | 22584 ft | 406 kts | 26° |
| 2026-04-20 19:26 | 54.37251 | 28.71747 | 23218 ft | 409 kts | 26° |
| 2026-04-20 19:26 | 54.39827 | 28.73756 | 23849 ft | 413 kts | 26° |
| 2026-04-20 19:27 | 54.42461 | 28.75822 | 24440 ft | 417 kts | 27° |
| 2026-04-20 19:27 | 54.44980 | 28.78283 | 24974 ft | 420 kts | 35° |
| 2026-04-20 19:27 | 54.47265 | 28.81356 | 25483 ft | 423 kts | 43° |
| 2026-04-20 19:27 | 54.49284 | 28.85020 | 26014 ft | 426 kts | 51° |
| 2026-04-20 19:28 | 54.50979 | 28.89198 | 26535 ft | 430 kts | 59° |
| 2026-04-20 19:28 | 54.52353 | 28.93751 | 27040 ft | 434 kts | 63° |
| 2026-04-20 19:28 | 54.53665 | 28.98429 | 27549 ft | 437 kts | 63° |
| 2026-04-20 19:28 | 54.54986 | 29.03153 | 28058 ft | 440 kts | 63° |
| 2026-04-20 19:29 | 54.56318 | 29.07916 | 28557 ft | 442 kts | 63° |
| 2026-04-20 19:29 | 54.57650 | 29.12681 | 29018 ft | 446 kts | 63° |
| 2026-04-20 19:29 | 54.58998 | 29.17506 | 29505 ft | 448 kts | 63° |
| 2026-04-20 19:29 | 54.60349 | 29.22351 | 30127 ft | 446 kts | 63° |
| 2026-04-20 19:30 | 54.61716 | 29.27259 | 30781 ft | 443 kts | 63° |
| 2026-04-20 19:30 | 54.63050 | 29.32059 | 31337 ft | 441 kts | 63° |
| 2026-04-20 19:30 | 54.64396 | 29.36912 | 31662 ft | 441 kts | 63° |
| 2026-04-20 19:30 | 54.65730 | 29.41728 | 31903 ft | 443 kts | 63° |
| 2026-04-20 19:31 | 54.67096 | 29.46520 | 32142 ft | 445 kts | 59° |
| 2026-04-20 19:31 | 54.68766 | 29.50987 | 32385 ft | 446 kts | 52° |
| 2026-04-20 19:31 | 54.70659 | 29.55236 | 32625 ft | 447 kts | 51° |
| 2026-04-20 19:31 | 54.72558 | 29.59445 | 32861 ft | 448 kts | 51° |
| 2026-04-20 19:32 | 54.74477 | 29.63709 | 33107 ft | 449 kts | 51° |
| 2026-04-20 19:32 | 54.76407 | 29.68006 | 33362 ft | 449 kts | 52° |
| 2026-04-20 19:32 | 54.78311 | 29.72261 | 33594 ft | 450 kts | 52° |
| 2026-04-20 19:32 | 54.80213 | 29.76518 | 33818 ft | 452 kts | 52° |
| 2026-04-20 19:33 | 54.82133 | 29.80825 | 34106 ft | 453 kts | 52° |
| 2026-04-20 19:33 | 54.84045 | 29.85124 | 34440 ft | 453 kts | 52° |
| 2026-04-20 19:33 | 54.85976 | 29.89474 | 34781 ft | 453 kts | 52° |
| 2026-04-20 19:33 | 54.87882 | 29.93774 | 35033 ft | 454 kts | 52° |
| 2026-04-20 19:34 | 54.89821 | 29.98160 | 35070 ft | 460 kts | 52° |
| 2026-04-20 19:34 | 54.93737 | 30.07039 | 35075 ft | 472 kts | 52° |
| 2026-04-20 19:35 | 54.97732 | 30.16131 | 35077 ft | 474 kts | 52° |
| 2026-04-20 19:35 | 55.01698 | 30.25190 | 35068 ft | 472 kts | 52° |
| 2026-04-20 19:36 | 55.05689 | 30.34343 | 35080 ft | 473 kts | 52° |
| 2026-04-20 19:36 | 55.09644 | 30.43444 | 35083 ft | 473 kts | 52° |
| 2026-04-20 19:37 | 55.13593 | 30.52566 | 35079 ft | 472 kts | 52° |
| 2026-04-20 19:37 | 55.17555 | 30.61753 | 35086 ft | 473 kts | 52° |
| 2026-04-20 19:38 | 55.21485 | 30.70898 | 35073 ft | 471 kts | 53° |
| 2026-04-20 19:38 | 55.25413 | 30.80075 | 35073 ft | 471 kts | 53° |
| 2026-04-20 19:39 | 55.28627 | 30.89998 | 35077 ft | 472 kts | 68° |
| 2026-04-20 19:39 | 55.30794 | 31.00878 | 35071 ft | 472 kts | 70° |
| 2026-04-20 19:40 | 55.32530 | 31.09914 | 35080 ft | 471 kts | 70° |
| 2026-04-20 19:40 | 55.34935 | 31.22546 | 35074 ft | 470 kts | 70° |
| 2026-04-20 19:41 | 55.36992 | 31.33449 | 35062 ft | 471 kts | 70° |
| 2026-04-20 19:41 | 55.39052 | 31.44446 | 35072 ft | 471 kts | 70° |
| 2026-04-20 19:42 | 55.41081 | 31.55349 | 35060 ft | 470 kts | 70° |
| 2026-04-20 19:42 | 55.43111 | 31.66330 | 35059 ft | 471 kts | 71° |
| 2026-04-20 19:43 | 55.45117 | 31.77242 | 35070 ft | 470 kts | 71° |
| 2026-04-20 19:43 | 55.47113 | 31.88162 | 35073 ft | 471 kts | 71° |
| 2026-04-20 19:44 | 55.49099 | 31.99091 | 35057 ft | 471 kts | 71° |
| 2026-04-20 19:44 | 55.51081 | 32.10069 | 35056 ft | 470 kts | 71° |
| 2026-04-20 19:45 | 55.53044 | 32.21003 | 35052 ft | 470 kts | 71° |
| 2026-04-20 19:45 | 55.54997 | 32.31944 | 35049 ft | 470 kts | 71° |
| 2026-04-20 19:46 | 55.56960 | 32.43013 | 35054 ft | 469 kts | 71° |
| 2026-04-20 19:46 | 55.58892 | 32.53976 | 35058 ft | 469 kts | 71° |
| 2026-04-20 19:47 | 55.60815 | 32.64944 | 35043 ft | 471 kts | 71° |
| 2026-04-20 19:47 | 55.62728 | 32.75927 | 35064 ft | 470 kts | 72° |
| 2026-04-20 19:48 | 55.64641 | 32.86980 | 35057 ft | 469 kts | 72° |
| 2026-04-20 19:48 | 55.66526 | 32.97940 | 35048 ft | 470 kts | 72° |
| 2026-04-20 19:49 | 55.68411 | 33.08964 | 35051 ft | 470 kts | 72° |
| 2026-04-20 19:49 | 55.70290 | 33.20017 | 35050 ft | 469 kts | 72° |
| 2026-04-20 19:50 | 55.72165 | 33.31124 | 35043 ft | 471 kts | 72° |
| 2026-04-20 19:50 | 55.74015 | 33.42152 | 35042 ft | 471 kts | 72° |
| 2026-04-20 19:51 | 55.75865 | 33.53244 | 35044 ft | 470 kts | 72° |
| 2026-04-20 19:51 | 55.77702 | 33.64337 | 35040 ft | 470 kts | 72° |
| 2026-04-20 19:52 | 55.79533 | 33.75460 | 35038 ft | 471 kts | 73° |
| 2026-04-20 19:52 | 55.81353 | 33.86587 | 35035 ft | 471 kts | 73° |
| 2026-04-20 19:53 | 55.83166 | 33.97744 | 35031 ft | 472 kts | 73° |
| 2026-04-20 19:53 | 55.84975 | 34.08952 | 35039 ft | 472 kts | 73° |
| 2026-04-20 19:54 | 55.86761 | 34.20085 | 35029 ft | 472 kts | 73° |
| 2026-04-20 19:54 | 55.88549 | 34.31364 | 35031 ft | 471 kts | 75° |
| 2026-04-20 19:55 | 55.89340 | 34.42905 | 35028 ft | 473 kts | 86° |
| 2026-04-20 19:55 | 55.89579 | 34.54565 | 35012 ft | 474 kts | 86° |
| 2026-04-20 19:56 | 55.89762 | 34.64311 | 35019 ft | 473 kts | 86° |
| 2026-04-20 19:56 | 55.90002 | 34.77962 | 35011 ft | 473 kts | 87° |
| 2026-04-20 19:57 | 55.90193 | 34.89619 | 35007 ft | 473 kts | 87° |
| 2026-04-20 19:57 | 55.90373 | 35.01265 | 34999 ft | 473 kts | 87° |
| 2026-04-20 19:58 | 55.90547 | 35.13006 | 34990 ft | 472 kts | 87° |
| 2026-04-20 19:58 | 55.90712 | 35.24617 | 34986 ft | 473 kts | 87° |
| 2026-04-20 19:59 | 55.90868 | 35.36343 | 34989 ft | 474 kts | 87° |
| 2026-04-20 19:59 | 55.91011 | 35.48019 | 34993 ft | 473 kts | 87° |
| 2026-04-20 20:00 | 55.91144 | 35.59745 | 34987 ft | 475 kts | 87° |
| 2026-04-20 20:00 | 55.91265 | 35.71372 | 34987 ft | 474 kts | 88° |
| 2026-04-20 20:01 | 55.91375 | 35.83081 | 34984 ft | 474 kts | 88° |
| 2026-04-20 20:01 | 55.91756 | 35.94793 | 34980 ft | 474 kts | 84° |
| 2026-04-20 20:02 | 55.92312 | 36.06400 | 34976 ft | 473 kts | 84° |
| 2026-04-20 20:02 | 55.92842 | 36.18113 | 34980 ft | 475 kts | 84° |
| 2026-04-20 20:03 | 55.93342 | 36.29646 | 34965 ft | 475 kts | 84° |
| 2026-04-20 20:03 | 55.93731 | 36.38909 | 34952 ft | 476 kts | 84° |
| 2026-04-20 20:04 | 55.94212 | 36.50659 | 34943 ft | 474 kts | 84° |
| 2026-04-20 20:04 | 55.94678 | 36.62363 | 34946 ft | 475 kts | 84° |
| 2026-04-20 20:05 | 55.95137 | 36.74181 | 34924 ft | 476 kts | 85° |
| 2026-04-20 20:05 | 55.95581 | 36.85955 | 34936 ft | 475 kts | 85° |
| 2026-04-20 20:06 | 55.96014 | 36.97723 | 34922 ft | 476 kts | 85° |
| 2026-04-20 20:06 | 55.96436 | 37.09501 | 34928 ft | 476 kts | 85° |
| 2026-04-20 20:07 | 55.96846 | 37.21262 | 34937 ft | 475 kts | 85° |
| 2026-04-20 20:07 | 55.97243 | 37.33001 | 34934 ft | 476 kts | 85° |
| 2026-04-20 20:08 | 55.97609 | 37.44735 | 34932 ft | 476 kts | 86° |
| 2026-04-20 20:08 | 55.97966 | 37.56539 | 34923 ft | 477 kts | 86° |
| 2026-04-20 20:09 | 55.98310 | 37.68301 | 34916 ft | 477 kts | 86° |
| 2026-04-20 20:09 | 55.98647 | 37.80084 | 34923 ft | 477 kts | 86° |
| 2026-04-20 20:10 | 55.98983 | 37.91843 | 34914 ft | 478 kts | 86° |
| 2026-04-20 20:10 | 55.99311 | 38.03679 | 34907 ft | 478 kts | 86° |
| 2026-04-20 20:11 | 55.99627 | 38.15507 | 34906 ft | 478 kts | 86° |
| 2026-04-20 20:11 | 55.99930 | 38.27305 | 34892 ft | 478 kts | 86° |
| 2026-04-20 20:12 | 56.00221 | 38.39072 | 34900 ft | 478 kts | 86° |
| 2026-04-20 20:12 | 56.00502 | 38.50888 | 34907 ft | 478 kts | 86° |
| 2026-04-20 20:13 | 56.00904 | 38.68669 | 34886 ft | 479 kts | 88° |
| 2026-04-20 20:13 | 56.01157 | 38.80480 | 34889 ft | 479 kts | 88° |
| 2026-04-20 20:14 | 56.01399 | 38.92322 | 34886 ft | 479 kts | 88° |
| 2026-04-20 20:14 | 56.01630 | 39.04211 | 34878 ft | 480 kts | 88° |
| 2026-04-20 20:15 | 56.01850 | 39.16098 | 34877 ft | 480 kts | 88° |
| 2026-04-20 20:15 | 56.02057 | 39.27891 | 34870 ft | 480 kts | 88° |
| 2026-04-20 20:16 | 56.02255 | 39.39818 | 34857 ft | 479 kts | 88° |
| 2026-04-20 20:16 | 56.02410 | 39.49696 | 34860 ft | 480 kts | 88° |
| 2026-04-20 20:17 | 56.02613 | 39.63543 | 34855 ft | 481 kts | 88° |
| 2026-04-20 20:17 | 56.02802 | 39.75408 | 34858 ft | 481 kts | 88° |
| 2026-04-20 20:18 | 56.02986 | 39.87327 | 34859 ft | 480 kts | 88° |
| 2026-04-20 20:18 | 56.03157 | 39.99215 | 34857 ft | 480 kts | 88° |
| 2026-04-20 20:19 | 56.03316 | 40.11076 | 34855 ft | 480 kts | 88° |
| 2026-04-20 20:19 | 56.03463 | 40.22995 | 34839 ft | 481 kts | 88° |
| 2026-04-20 20:20 | 56.03577 | 40.32904 | 34840 ft | 482 kts | 88° |
| 2026-04-20 20:20 | 56.03724 | 40.46802 | 34838 ft | 482 kts | 88° |
| 2026-04-20 20:21 | 56.03819 | 40.56717 | 34819 ft | 482 kts | 88° |
| 2026-04-20 20:21 | 56.03939 | 40.70716 | 34816 ft | 482 kts | 89° |
| 2026-04-20 20:22 | 56.04028 | 40.82645 | 34803 ft | 483 kts | 89° |
| 2026-04-20 20:22 | 56.04105 | 40.94592 | 34804 ft | 483 kts | 89° |
| 2026-04-20 20:23 | 56.04170 | 41.06518 | 34802 ft | 483 kts | 89° |
| 2026-04-20 20:23 | 56.04224 | 41.18499 | 34795 ft | 483 kts | 89° |
| 2026-04-20 20:24 | 56.04266 | 41.30420 | 34792 ft | 484 kts | 89° |
| 2026-04-20 20:24 | 56.04297 | 41.42413 | 34776 ft | 484 kts | 89° |
| 2026-04-20 20:25 | 56.04316 | 41.54424 | 34768 ft | 484 kts | 89° |
| 2026-04-20 20:25 | 56.04323 | 41.66391 | 34769 ft | 484 kts | 90° |
| 2026-04-20 20:26 | 56.04319 | 41.78447 | 34764 ft | 483 kts | 90° |
| 2026-04-20 20:26 | 56.04303 | 41.90412 | 34756 ft | 484 kts | 90° |
| 2026-04-20 20:27 | 56.04275 | 42.02405 | 34749 ft | 486 kts | 90° |
| 2026-04-20 20:27 | 56.04236 | 42.14476 | 34739 ft | 485 kts | 90° |
| 2026-04-20 20:28 | 56.04185 | 42.26452 | 34744 ft | 485 kts | 90° |
| 2026-04-20 20:28 | 56.04134 | 42.36462 | 34747 ft | 485 kts | 90° |
| 2026-04-20 20:29 | 56.04048 | 42.50475 | 34747 ft | 485 kts | 90° |
| 2026-04-20 20:29 | 56.03932 | 42.62524 | 34725 ft | 486 kts | 91° |
| 2026-04-20 20:30 | 56.03777 | 42.74596 | 34725 ft | 487 kts | 91° |
| 2026-04-20 20:30 | 56.03613 | 42.86578 | 34718 ft | 486 kts | 92° |
| 2026-04-20 20:31 | 56.03438 | 42.98634 | 34715 ft | 485 kts | 91° |
| 2026-04-20 20:31 | 56.03284 | 43.08652 | 34715 ft | 486 kts | 91° |
| 2026-04-20 20:32 | 56.03053 | 43.22776 | 34708 ft | 486 kts | 91° |
| 2026-04-20 20:32 | 56.02911 | 43.32816 | 34701 ft | 486 kts | 88° |
| 2026-04-20 20:33 | 56.03589 | 43.44766 | 34703 ft | 487 kts | 83° |
| 2026-04-20 20:33 | 56.04416 | 43.56756 | 34701 ft | 487 kts | 83° |
| 2026-04-20 20:34 | 56.05225 | 43.68726 | 34709 ft | 487 kts | 84° |
| 2026-04-20 20:34 | 56.06023 | 43.80770 | 34695 ft | 488 kts | 84° |
| 2026-04-20 20:35 | 56.06805 | 43.92788 | 34694 ft | 488 kts | 84° |
| 2026-04-20 20:35 | 56.07703 | 44.06814 | 34694 ft | 488 kts | 84° |
| 2026-04-20 20:36 | 56.08457 | 44.18822 | 34680 ft | 486 kts | 84° |
| 2026-04-20 20:36 | 56.09079 | 44.28867 | 34677 ft | 488 kts | 84° |
| 2026-04-20 20:37 | 56.09935 | 44.42922 | 34664 ft | 489 kts | 84° |
| 2026-04-20 20:37 | 56.10657 | 44.55008 | 34652 ft | 489 kts | 84° |
| 2026-04-20 20:38 | 56.11205 | 44.67153 | 34655 ft | 488 kts | 91° |
| 2026-04-20 20:38 | 56.11007 | 44.79242 | 34652 ft | 488 kts | 92° |
| 2026-04-20 20:39 | 56.10761 | 44.91368 | 34654 ft | 489 kts | 92° |
| 2026-04-20 20:39 | 56.10500 | 45.03524 | 34640 ft | 490 kts | 93° |
| 2026-04-20 20:40 | 56.10261 | 45.13699 | 34645 ft | 491 kts | 93° |
| 2026-04-20 20:40 | 56.09926 | 45.27899 | 34634 ft | 491 kts | 93° |
| 2026-04-20 20:41 | 56.09681 | 45.37965 | 34626 ft | 490 kts | 93° |
| 2026-04-20 20:41 | 56.09322 | 45.52152 | 34632 ft | 491 kts | 93° |
| 2026-04-20 20:42 | 56.09002 | 45.64283 | 34615 ft | 490 kts | 93° |
| 2026-04-20 20:42 | 56.08722 | 45.74490 | 34615 ft | 492 kts | 94° |
| 2026-04-20 20:43 | 56.08379 | 45.86668 | 34608 ft | 493 kts | 94° |
| 2026-04-20 20:43 | 56.07960 | 46.00941 | 34597 ft | 493 kts | 94° |
| 2026-04-20 20:44 | 56.07590 | 46.13106 | 34598 ft | 492 kts | 94° |
| 2026-04-20 20:44 | 56.07208 | 46.25298 | 34606 ft | 493 kts | 94° |
| 2026-04-20 20:45 | 56.06880 | 46.35444 | 34601 ft | 493 kts | 94° |
| 2026-04-20 20:45 | 56.06251 | 46.49672 | 34595 ft | 491 kts | 101° |
| 2026-04-20 20:46 | 56.04281 | 46.61224 | 34597 ft | 491 kts | 111° |
| 2026-04-20 20:46 | 56.01874 | 46.72606 | 34592 ft | 491 kts | 112° |
| 2026-04-20 20:47 | 55.99431 | 46.84029 | 34581 ft | 493 kts | 112° |
| 2026-04-20 20:47 | 55.96986 | 46.95376 | 34583 ft | 492 kts | 112° |
| 2026-04-20 20:48 | 55.94519 | 47.06741 | 34580 ft | 492 kts | 112° |
| 2026-04-20 20:48 | 55.92048 | 47.18063 | 34584 ft | 492 kts | 112° |
| 2026-04-20 20:49 | 55.89573 | 47.29337 | 34583 ft | 491 kts | 112° |
| 2026-04-20 20:49 | 55.87069 | 47.40679 | 34585 ft | 493 kts | 112° |
| 2026-04-20 20:50 | 55.84993 | 47.50035 | 34589 ft | 493 kts | 112° |
| 2026-04-20 20:50 | 55.82053 | 47.63216 | 34588 ft | 493 kts | 112° |
| 2026-04-20 20:51 | 55.79929 | 47.72686 | 34585 ft | 492 kts | 113° |
| 2026-04-20 20:51 | 55.76974 | 47.85792 | 34588 ft | 492 kts | 114° |
| 2026-04-20 20:52 | 55.74850 | 47.95168 | 34578 ft | 492 kts | 114° |
| 2026-04-20 20:52 | 55.71861 | 48.08291 | 34575 ft | 493 kts | 114° |
| 2026-04-20 20:53 | 55.69277 | 48.19570 | 34575 ft | 494 kts | 114° |
| 2026-04-20 20:53 | 55.66706 | 48.30737 | 34578 ft | 494 kts | 114° |
| 2026-04-20 20:54 | 55.64095 | 48.42014 | 34582 ft | 494 kts | 114° |
| 2026-04-20 20:54 | 55.61497 | 48.53180 | 34575 ft | 494 kts | 114° |
| 2026-04-20 20:55 | 55.58886 | 48.64354 | 34565 ft | 494 kts | 114° |
| 2026-04-20 20:55 | 55.56253 | 48.75561 | 34566 ft | 493 kts | 115° |
| 2026-04-20 20:56 | 55.54057 | 48.84864 | 34572 ft | 494 kts | 115° |
| 2026-04-20 20:56 | 55.51390 | 48.96111 | 34572 ft | 494 kts | 115° |
| 2026-04-20 20:57 | 55.48288 | 49.09116 | 34573 ft | 495 kts | 115° |
| 2026-04-20 20:57 | 55.45624 | 49.20223 | 34576 ft | 495 kts | 115° |
| 2026-04-20 20:58 | 55.43379 | 49.29539 | 34584 ft | 495 kts | 115° |
| 2026-04-20 20:58 | 55.40235 | 49.42520 | 34583 ft | 496 kts | 115° |
| 2026-04-20 20:59 | 55.37546 | 49.53569 | 34587 ft | 495 kts | 115° |
| 2026-04-20 20:59 | 55.34822 | 49.64700 | 34585 ft | 496 kts | 115° |
| 2026-04-20 21:00 | 55.32563 | 49.73892 | 34577 ft | 496 kts | 116° |
| 2026-04-20 21:00 | 55.29822 | 49.84991 | 34577 ft | 496 kts | 116° |
| 2026-04-20 21:01 | 55.26628 | 49.97852 | 34582 ft | 495 kts | 116° |
| 2026-04-20 21:01 | 55.23874 | 50.08881 | 34583 ft | 495 kts | 116° |
| 2026-04-20 21:02 | 55.21576 | 50.18043 | 34573 ft | 496 kts | 116° |
| 2026-04-20 21:02 | 55.18347 | 50.30850 | 34582 ft | 496 kts | 117° |
| 2026-04-20 21:03 | 55.15548 | 50.41895 | 34583 ft | 496 kts | 117° |
| 2026-04-20 21:03 | 55.12748 | 50.52888 | 34578 ft | 496 kts | 117° |
| 2026-04-20 21:04 | 55.09939 | 50.63860 | 34577 ft | 496 kts | 117° |
| 2026-04-20 21:04 | 55.07111 | 50.74856 | 34575 ft | 495 kts | 118° |
| 2026-04-20 21:05 | 55.04770 | 50.83915 | 34572 ft | 495 kts | 118° |
| 2026-04-20 21:05 | 55.02010 | 50.97202 | 34571 ft | 499 kts | 112° |
| 2026-04-20 21:06 | 55.00174 | 51.06666 | 34567 ft | 499 kts | 112° |
| 2026-04-20 21:06 | 54.97546 | 51.19955 | 34563 ft | 498 kts | 112° |
| 2026-04-20 21:07 | 54.95257 | 51.31370 | 34560 ft | 499 kts | 112° |
| 2026-04-20 21:07 | 54.92956 | 51.42736 | 34555 ft | 498 kts | 112° |
| 2026-04-20 21:08 | 54.91040 | 51.52134 | 34561 ft | 497 kts | 112° |
| 2026-04-20 21:08 | 54.88712 | 51.63480 | 34576 ft | 498 kts | 112° |
| 2026-04-20 21:09 | 54.86000 | 51.76607 | 34589 ft | 499 kts | 114° |
| 2026-04-20 21:09 | 54.84032 | 51.86079 | 34592 ft | 499 kts | 114° |
| 2026-04-20 21:10 | 54.81275 | 51.99271 | 34594 ft | 499 kts | 114° |
| 2026-04-20 21:10 | 54.79292 | 52.08704 | 34599 ft | 499 kts | 114° |
| 2026-04-20 21:11 | 54.76900 | 52.20024 | 34594 ft | 500 kts | 114° |
| 2026-04-20 21:11 | 54.74516 | 52.31242 | 34594 ft | 498 kts | 114° |
| 2026-04-20 21:12 | 54.72129 | 52.42415 | 34592 ft | 499 kts | 114° |
| 2026-04-20 21:12 | 54.69705 | 52.53693 | 34593 ft | 500 kts | 114° |
| 2026-04-20 21:13 | 54.67287 | 52.64884 | 34589 ft | 500 kts | 114° |
| 2026-04-20 21:13 | 54.64442 | 52.77981 | 34589 ft | 501 kts | 114° |
| 2026-04-20 21:14 | 54.63415 | 52.83660 | 34441 ft | 496 kts | 109° |
| 2026-04-20 21:14 | 54.62523 | 52.89436 | 33809 ft | 498 kts | 109° |
| 2026-04-20 21:14 | 54.61642 | 52.95198 | 32916 ft | 504 kts | 109° |
| 2026-04-20 21:14 | 54.61053 | 52.99041 | 32335 ft | 504 kts | 110° |
| 2026-04-20 21:15 | 54.60173 | 53.04762 | 31378 ft | 498 kts | 110° |
| 2026-04-20 21:15 | 54.59284 | 53.10523 | 30453 ft | 490 kts | 110° |
| 2026-04-20 21:15 | 54.58430 | 53.16037 | 29863 ft | 474 kts | 110° |
| 2026-04-20 21:15 | 54.57589 | 53.21452 | 29420 ft | 456 kts | 110° |
| 2026-04-20 21:16 | 54.56482 | 53.28496 | 28864 ft | 468 kts | 110° |
| 2026-04-20 21:16 | 54.55907 | 53.32116 | 28458 ft | 474 kts | 110° |
| 2026-04-20 21:16 | 54.55051 | 53.37539 | 27888 ft | 471 kts | 110° |
| 2026-04-20 21:16 | 54.53915 | 53.44718 | 27174 ft | 464 kts | 110° |
| 2026-04-20 21:17 | 54.53359 | 53.48221 | 26830 ft | 460 kts | 110° |
| 2026-04-20 21:17 | 54.52519 | 53.53493 | 26305 ft | 454 kts | 110° |
| 2026-04-20 21:17 | 54.51691 | 53.58676 | 25775 ft | 449 kts | 110° |
| 2026-04-20 21:17 | 54.50872 | 53.63777 | 25249 ft | 444 kts | 110° |
| 2026-04-20 21:18 | 54.50052 | 53.68879 | 24712 ft | 439 kts | 111° |
| 2026-04-20 21:18 | 54.49242 | 53.73894 | 24200 ft | 434 kts | 111° |
| 2026-04-20 21:18 | 54.48449 | 53.78790 | 23672 ft | 429 kts | 111° |
| 2026-04-20 21:18 | 54.47649 | 53.83720 | 23147 ft | 423 kts | 111° |
| 2026-04-20 21:19 | 54.46870 | 53.88504 | 22641 ft | 418 kts | 111° |
| 2026-04-20 21:19 | 54.46086 | 53.93299 | 22123 ft | 413 kts | 111° |
| 2026-04-20 21:19 | 54.45319 | 53.97982 | 21345 ft | 415 kts | 111° |
| 2026-04-20 21:20 | 54.43760 | 54.07451 | 19873 ft | 410 kts | 111° |
| 2026-04-20 21:20 | 54.42994 | 54.12104 | 19280 ft | 399 kts | 111° |
| 2026-04-20 21:20 | 54.42257 | 54.16573 | 18914 ft | 380 kts | 111° |
| 2026-04-20 21:20 | 54.41557 | 54.20807 | 18625 ft | 361 kts | 111° |
| 2026-04-20 21:21 | 54.40886 | 54.24853 | 18350 ft | 344 kts | 112° |
| 2026-04-20 21:21 | 54.40239 | 54.28720 | 17925 ft | 334 kts | 112° |
| 2026-04-20 21:21 | 54.39614 | 54.32443 | 17378 ft | 328 kts | 112° |
| 2026-04-20 21:21 | 54.38985 | 54.36181 | 16744 ft | 325 kts | 112° |
| 2026-04-20 21:22 | 54.38359 | 54.39904 | 16085 ft | 323 kts | 111° |
| 2026-04-20 21:22 | 54.38104 | 54.43702 | 15499 ft | 330 kts | 88° |
| 2026-04-20 21:22 | 54.38677 | 54.47487 | 15165 ft | 326 kts | 74° |
| 2026-04-20 21:22 | 54.39529 | 54.51071 | 14515 ft | 328 kts | 71° |
| 2026-04-20 21:23 | 54.40437 | 54.54640 | 13747 ft | 331 kts | 71° |
| 2026-04-20 21:23 | 54.41352 | 54.58221 | 13093 ft | 330 kts | 71° |
| 2026-04-20 21:23 | 54.42268 | 54.61815 | 12531 ft | 326 kts | 70° |
| 2026-04-20 21:23 | 54.43164 | 54.65352 | 11940 ft | 323 kts | 71° |
| 2026-04-20 21:24 | 54.44043 | 54.68824 | 11393 ft | 319 kts | 71° |
| 2026-04-20 21:24 | 54.44927 | 54.72329 | 10808 ft | 316 kts | 70° |
| 2026-04-20 21:24 | 54.45790 | 54.75754 | 10212 ft | 315 kts | 70° |
| 2026-04-20 21:24 | 54.46648 | 54.79168 | 9653 ft | 312 kts | 70° |
| 2026-04-20 21:25 | 54.47506 | 54.82580 | 9153 ft | 307 kts | 70° |
| 2026-04-20 21:25 | 54.48338 | 54.85895 | 8593 ft | 305 kts | 70° |
| 2026-04-20 21:25 | 54.49170 | 54.89223 | 8098 ft | 300 kts | 70° |
| 2026-04-20 21:25 | 54.49986 | 54.92484 | 7538 ft | 298 kts | 70° |
| 2026-04-20 21:26 | 54.50787 | 54.95689 | 7418 ft | 290 kts | 70° |
| 2026-04-20 21:26 | 54.51580 | 54.98874 | 7344 ft | 287 kts | 70° |
| 2026-04-20 21:26 | 54.52359 | 55.01999 | 7273 ft | 284 kts | 71° |
| 2026-04-20 21:26 | 54.53127 | 55.05093 | 7198 ft | 283 kts | 71° |
| 2026-04-20 21:27 | 54.53901 | 55.08209 | 7134 ft | 281 kts | 71° |
| 2026-04-20 21:27 | 54.54661 | 55.11277 | 7062 ft | 281 kts | 70° |
| 2026-04-20 21:27 | 54.55428 | 55.14376 | 6991 ft | 281 kts | 70° |
| 2026-04-20 21:27 | 54.56189 | 55.17453 | 6913 ft | 279 kts | 71° |
| 2026-04-20 21:28 | 54.56950 | 55.20535 | 6842 ft | 280 kts | 71° |
| 2026-04-20 21:28 | 54.57709 | 55.23614 | 6772 ft | 278 kts | 71° |
| 2026-04-20 21:28 | 54.58457 | 55.26650 | 6702 ft | 278 kts | 71° |
| 2026-04-20 21:28 | 54.59392 | 55.29548 | 6595 ft | 275 kts | 56° |
| 2026-04-20 21:29 | 54.60579 | 55.32131 | 6277 ft | 277 kts | 53° |
| 2026-04-20 21:29 | 54.61812 | 55.34700 | 5592 ft | 288 kts | 53° |
| 2026-04-20 21:29 | 54.63107 | 55.37415 | 4855 ft | 298 kts | 53° |
| 2026-04-20 21:29 | 54.64422 | 55.40182 | 4128 ft | 307 kts | 53° |
| 2026-04-20 21:30 | 54.65783 | 55.43053 | 3476 ft | 306 kts | 53° |
| 2026-04-20 21:30 | 54.67097 | 55.45825 | 3077 ft | 296 kts | 54° |
| 2026-04-20 21:30 | 54.68369 | 55.48512 | 2981 ft | 279 kts | 54° |
| 2026-04-20 21:30 | 54.69569 | 55.51055 | 2958 ft | 269 kts | 54° |
| 2026-04-20 21:31 | 54.70714 | 55.53481 | 2951 ft | 256 kts | 54° |
| 2026-04-20 21:31 | 54.71832 | 55.55859 | 2964 ft | 252 kts | 54° |
| 2026-04-20 21:31 | 54.72930 | 55.58191 | 2985 ft | 251 kts | 54° |
| 2026-04-20 21:31 | 54.74037 | 55.60531 | 3000 ft | 253 kts | 54° |
| 2026-04-20 21:32 | 54.75062 | 55.63013 | 2963 ft | 248 kts | 71° |
| 2026-04-20 21:32 | 54.75340 | 55.65872 | 2981 ft | 240 kts | 101° |
| 2026-04-20 21:32 | 54.74864 | 55.68528 | 2995 ft | 233 kts | 129° |
| 2026-04-20 21:32 | 54.73701 | 55.70290 | 2992 ft | 217 kts | 159° |
| 2026-04-20 21:33 | 54.72295 | 55.70857 | 3015 ft | 203 kts | 167° |
| 2026-04-20 21:33 | 54.71019 | 55.71667 | 3010 ft | 189 kts | 156° |
| 2026-04-20 21:33 | 54.69928 | 55.72697 | 3006 ft | 168 kts | 153° |
| 2026-04-20 21:33 | 54.68961 | 55.73671 | 2998 ft | 159 kts | 153° |
| 2026-04-20 21:34 | 54.68017 | 55.74604 | 2861 ft | 151 kts | 154° |
| 2026-04-20 21:34 | 54.67133 | 55.75467 | 2747 ft | 139 kts | 154° |
| 2026-04-20 21:34 | 54.66280 | 55.76287 | 2618 ft | 140 kts | 154° |
| 2026-04-20 21:34 | 54.65433 | 55.77119 | 2342 ft | 142 kts | 151° |
| 2026-04-20 21:35 | 54.64601 | 55.77950 | 2136 ft | 138 kts | 154° |
| 2026-04-20 21:35 | 54.63749 | 55.78754 | 1980 ft | 140 kts | 152° |
| 2026-04-20 21:35 | 54.62912 | 55.79555 | 1769 ft | 140 kts | 153° |
| 2026-04-20 21:35 | 54.62065 | 55.80356 | 1542 ft | 140 kts | 151° |
| 2026-04-20 21:36 | 54.61221 | 55.81218 | 1278 ft | 142 kts | 152° |
| 2026-04-20 21:36 | 54.60344 | 55.82002 | 1066 ft | 145 kts | 152° |
| 2026-04-20 21:36 | 54.59453 | 55.82894 | 906 ft | 148 kts | 150° |
| 2026-04-20 21:36 | 54.58566 | 55.83774 | 717 ft | 150 kts | 153° |
| 2026-04-20 21:37 | 54.57636 | 55.84621 | 464 ft | 150 kts | 151° |
| 2026-04-20 21:37 | 54.56759 | 55.85469 | 387 ft | 130 kts | 151° |
| 2026-04-20 21:37 | 54.56090 | 55.86115 | 408 ft | 93 kts | 150° |
| 2026-04-20 21:37 | 54.55631 | 55.86556 | 423 ft | 57 kts | 151° |
| 2026-04-20 21:38 | 54.55363 | 55.86814 | 431 ft | 38 kts | 150° |
| 2026-04-20 21:38 | 54.55149 | 55.87020 | 432 ft | 32 kts | 152° |
| 2026-04-20 21:38 | 54.54969 | 55.87193 | 435 ft | 27 kts | 150° |
| 2026-04-20 21:38 | 54.54812 | 55.87345 | 436 ft | 24 kts | 151° |
| 2026-04-20 21:39 | 54.54678 | 55.87472 | 438 ft | 20 kts | 151° |
| 2026-04-20 21:39 | 54.54568 | 55.87577 | 441 ft | 16 kts | 150° |
| 2026-04-20 21:39 | 54.54475 | 55.87671 | 443 ft | 16 kts | 150° |
| 2026-04-20 21:39 | 54.54403 | 55.87810 | 445 ft | 17 kts | 89° |
| 2026-04-20 21:40 | 54.54440 | 55.88038 | 441 ft | 22 kts | 72° |
| 2026-04-20 21:40 | 54.54492 | 55.88310 | 439 ft | 24 kts | 72° |
| 2026-04-20 21:40 | 54.54551 | 55.88612 | 433 ft | 28 kts | 72° |
| 2026-04-20 21:40 | 54.54617 | 55.88955 | 422 ft | 31 kts | 72° |
| 2026-04-20 21:41 | 54.54695 | 55.89294 | 409 ft | 28 kts | 66° |
| 2026-04-20 21:41 | 54.54799 | 55.89489 | 400 ft | 15 kts | 32° |
| 2026-04-20 21:41 | 54.54902 | 55.89597 | 392 ft | 15 kts | 31° |
| 2026-04-20 21:41 | 54.54993 | 55.89612 | 390 ft | 13 kts | 337° |
| 2026-04-20 21:42 | 54.55080 | 55.89534 | 390 ft | 15 kts | 330° |
| 2026-04-20 21:42 | 54.55190 | 55.89426 | 390 ft | 20 kts | 330° |
| 2026-04-20 21:42 | 54.55312 | 55.89309 | 390 ft | 19 kts | 330° |
| 2026-04-20 21:42 | 54.55423 | 55.89202 | 390 ft | 17 kts | 330° |
| 2026-04-20 21:43 | 54.55524 | 55.89104 | 390 ft | 16 kts | 330° |
| 2026-04-20 21:43 | 54.55619 | 55.89011 | 392 ft | 15 kts | 330° |
| 2026-04-20 21:43 | 54.55718 | 55.88917 | 393 ft | 16 kts | 330° |
| 2026-04-20 21:43 | 54.55833 | 55.88806 | 393 ft | 20 kts | 330° |
| 2026-04-20 21:44 | 54.55967 | 55.88678 | 393 ft | 23 kts | 331° |
| 2026-04-20 21:44 | 54.56116 | 55.88535 | 392 ft | 24 kts | 331° |
| 2026-04-20 21:44 | 54.56269 | 55.88388 | 390 ft | 22 kts | 331° |
| 2026-04-20 21:44 | 54.56357 | 55.88303 | 389 ft | 13 kts | 330° |
| 2026-04-20 21:45 | 54.56433 | 55.88231 | 389 ft | 9 kts | 339° |
| 2026-04-20 21:45 | 54.56497 | 55.88235 | 389 ft | 9 kts | 8° |
| 2026-04-20 21:45 | 54.56553 | 55.88208 | 389 ft | 7 kts | 313° |
| 2026-04-20 21:45 | 54.56558 | 55.88139 | 389 ft | 4 kts | 252° |
| 2026-04-20 21:46 | 54.56541 | 55.88114 | 389 ft | 3 kts | 189° |
| 2026-04-20 21:46 | 54.56526 | 55.88141 | 389 ft | 5 kts | 94° |
| 2026-04-20 21:46 | 54.56540 | 55.88215 | 389 ft | 5 kts | 64° |
| 2026-04-20 21:46 | 54.56551 | 55.88251 | 389 ft | 1 kts | 62° |